Time;durP1;ratioP1;P1;durP2;ratioP2;P2;SDS_P1;SDS_P2;PMS_P1;PMS_P2;Temp;Humidity;BMP_temperature;BMP_pressure;BME280_temperature;BME280_humidity;BME280_pressure;Samples;Min_cycle;Max_cycle;Signal;HPM_P1;HPM_P2
2023/09/10 00:00:30;;;;;;;6.18;2.20;;;;;;;16.46;45.33;95361.97;4927741;29;20431;-83
2023/09/10 00:02:55;;;;;;;4.18;2.10;;;;;;;16.47;45.57;95374.59;4929131;29;20087;-83
2023/09/10 00:05:21;;;;;;;4.35;1.83;;;;;;;16.46;45.45;95371.06;4911735;29;20526;-82
2023/09/10 00:07:46;;;;;;;8.80;2.08;;;;;;;16.42;45.68;95366.91;4929202;29;20031;-83
2023/09/10 00:10:11;;;;;;;4.40;2.17;;;;;;;16.39;45.81;95370.59;4911601;29;20027;-82
2023/09/10 00:12:37;;;;;;;4.18;1.83;;;;;;;16.35;45.94;95370.00;4929356;29;20056;-82
2023/09/10 00:15:04;;;;;;;3.03;1.70;;;;;;;16.34;46.01;95363.66;4911401;29;20032;-82
2023/09/10 00:17:29;;;;;;;4.25;1.80;;;;;;;16.29;46.22;95366.31;4911931;29;20090;-83
2023/09/10 00:19:55;;;;;;;4.68;2.10;;;;;;;16.26;46.20;95358.91;4927271;29;20023;-83
2023/09/10 00:22:20;;;;;;;4.35;2.33;;;;;;;16.18;46.19;95359.22;4912232;29;20138;-83
2023/09/10 00:24:45;;;;;;;2.72;1.77;;;;;;;16.17;45.66;95354.91;4911821;29;20118;-83
2023/09/10 00:27:13;;;;;;;3.10;1.90;;;;;;;16.14;45.52;95355.06;4927378;29;20545;-83
2023/09/10 00:29:38;;;;;;;2.38;1.77;;;;;;;16.13;45.82;95357.06;4912173;29;20502;-83
2023/09/10 00:32:03;;;;;;;4.00;1.67;;;;;;;16.13;45.95;95356.28;4911315;29;20126;-82
2023/09/10 00:34:30;;;;;;;5.75;1.98;;;;;;;16.10;46.01;95355.19;4928009;29;20090;-83
2023/09/10 00:36:55;;;;;;;5.10;1.80;;;;;;;16.13;45.69;95359.84;4894950;29;20458;-82
2023/09/10 00:39:20;;;;;;;3.22;1.90;;;;;;;16.10;45.65;95355.19;4928755;29;20036;-82
2023/09/10 00:41:46;;;;;;;3.45;1.83;;;;;;;15.99;46.25;95356.91;4911193;29;20024;-81
2023/09/10 00:44:12;;;;;;;2.80;1.88;;;;;;;15.93;45.76;95351.19;4928613;29;20028;-83
2023/09/10 00:46:38;;;;;;;4.03;1.83;;;;;;;15.90;45.96;95343.81;4928790;29;20127;-82
2023/09/10 00:49:03;;;;;;;4.47;1.90;;;;;;;15.84;45.79;95354.75;4926924;29;20059;-82
2023/09/10 00:51:28;;;;;;;3.33;1.73;;;;;;;15.82;45.88;95357.19;4929134;29;20027;-82
2023/09/10 00:53:54;;;;;;;5.22;2.20;;;;;;;15.82;45.97;95351.66;4926565;29;20027;-83
2023/09/10 00:56:20;;;;;;;5.97;2.40;;;;;;;15.80;46.02;95362.44;4927527;29;20031;-83
2023/09/10 00:58:46;;;;;;;3.10;1.73;;;;;;;15.81;46.21;95365.97;4928290;29;20059;-82
2023/09/10 01:01:11;;;;;;;4.57;2.78;;;;;;;15.71;46.39;95342.25;4927421;29;20422;-82
2023/09/10 01:03:38;;;;;;;3.58;1.67;;;;;;;15.75;46.28;95373.38;4929559;29;20028;-83
2023/09/10 01:06:04;;;;;;;2.85;1.75;;;;;;;15.70;46.46;95362.88;4928304;29;20036;-83
2023/09/10 01:08:29;;;;;;;7.55;2.00;;;;;;;15.65;46.48;95358.72;4931265;29;20028;-83
2023/09/10 01:11:13;;;;;;;4.18;1.73;;;;;;;15.67;46.61;95353.50;4914165;29;20031;-83
2023/09/10 01:14:01;;;;;;;;;;;;;;;15.69;46.32;95351.03;4933118;29;20024;-82
2023/09/10 01:16:34;;;;;;;5.10;1.90;;;;;;;15.59;46.47;95352.97;4921830;29;20420;-82
2023/09/10 01:19:04;;;;;;;5.53;2.17;;;;;;;15.57;46.99;95358.22;4930308;29;20114;-83
2023/09/10 01:21:35;;;;;;;2.92;1.63;;;;;;;15.51;47.06;95348.97;4915506;29;20181;-83
2023/09/10 01:24:03;;;;;;;2.53;1.42;;;;;;;15.50;46.85;95352.22;4931529;29;20034;-82
2023/09/10 01:26:29;;;;;;;5.63;2.20;;;;;;;15.45;47.13;95350.81;4932098;29;20035;-83
2023/09/10 01:28:54;;;;;;;4.55;1.90;;;;;;;15.37;47.55;95357.91;4914163;29;20417;-83
2023/09/10 01:31:20;;;;;;;3.05;1.88;;;;;;;15.38;47.50;95356.66;4931906;29;20035;-82
2023/09/10 01:33:53;;;;;;;3.60;2.08;;;;;;;15.36;47.65;95359.88;4930328;29;20020;-83
2023/09/10 01:36:32;;;;;;;3.17;1.85;;;;;;;15.35;47.76;95357.56;4929984;29;20368;-83
2023/09/10 01:39:06;;;;;;;2.38;1.60;;;;;;;15.26;47.98;95355.56;4930862;29;20036;-83
2023/09/10 01:41:32;;;;;;;6.32;1.85;;;;;;;15.26;47.97;95355.56;4930028;29;20040;-83
2023/09/10 01:43:58;;;;;;;4.82;2.25;;;;;;;15.26;48.20;95355.56;4914342;29;20039;-82
2023/09/10 01:46:25;;;;;;;3.13;1.90;;;;;;;15.27;48.05;95351.56;4914228;29;20038;-83
2023/09/10 01:48:50;;;;;;;3.13;2.22;;;;;;;15.23;48.45;95361.22;4930012;29;20028;-82
2023/09/10 01:51:19;;;;;;;3.97;2.13;;;;;;;15.17;48.19;95357.50;4930582;29;20099;-82
2023/09/10 01:53:46;;;;;;;4.45;2.08;;;;;;;15.20;48.58;95360.16;4929895;29;20059;-83
2023/09/10 01:56:12;;;;;;;4.53;2.15;;;;;;;15.20;48.96;95362.91;4914403;29;20099;-83
2023/09/10 01:58:38;;;;;;;6.05;2.22;;;;;;;15.20;49.25;95367.69;4930838;29;20040;-82
2023/09/10 02:01:06;;;;;;;4.55;2.00;;;;;;;15.15;49.13;95363.50;4931444;29;20032;-83
2023/09/10 02:03:31;;;;;;;3.65;2.17;;;;;;;15.18;49.29;95359.06;4929657;29;20023;-82
2023/09/10 02:05:58;;;;;;;4.03;2.10;;;;;;;15.15;49.32;95366.28;4929897;29;20071;-81
2023/09/10 02:08:24;;;;;;;4.22;2.13;;;;;;;15.13;49.55;95363.19;4930128;29;20454;-82
2023/09/10 02:10:49;;;;;;;4.82;2.20;;;;;;;15.10;49.41;95370.41;4930849;29;20436;-82
2023/09/10 02:13:15;;;;;;;5.32;2.40;;;;;;;15.09;49.23;95368.88;4931424;29;20034;-82
2023/09/10 02:15:40;;;;;;;5.65;2.13;;;;;;;15.10;49.46;95375.19;4913434;29;20055;-82
2023/09/10 02:18:06;;;;;;;4.53;2.40;;;;;;;15.04;49.65;95371.47;4929468;29;20020;-82
2023/09/10 02:20:36;;;;;;;6.15;1.98;;;;;;;15.01;49.67;95362.06;4929308;29;20032;-82
2023/09/10 02:23:02;;;;;;;6.55;1.98;;;;;;;14.96;49.78;95370.97;4913888;29;20036;-81
2023/09/10 02:25:27;;;;;;;4.85;2.25;;;;;;;15.00;49.62;95382.69;4931027;29;20417;-82
2023/09/10 02:27:52;;;;;;;6.25;2.47;;;;;;;14.96;49.52;95384.81;4930835;29;20035;-81
2023/09/10 02:30:18;;;;;;;4.97;2.03;;;;;;;14.92;49.43;95384.19;4929679;29;20546;-83
2023/09/10 02:32:43;;;;;;;5.20;2.10;;;;;;;14.80;49.13;95371.97;4914170;29;20130;-82
2023/09/10 02:35:09;;;;;;;7.18;2.40;;;;;;;14.89;48.95;95385.09;4930906;29;20395;-82
2023/09/10 02:37:34;;;;;;;4.72;2.28;;;;;;;14.82;49.02;95386.13;4930227;29;20024;-82
2023/09/10 02:39:59;;;;;;;4.68;2.15;;;;;;;14.75;48.94;95377.34;4930625;29;20062;-82
2023/09/10 02:42:25;;;;;;;3.88;2.25;;;;;;;14.74;49.07;95381.34;4930207;29;20035;-81
2023/09/10 02:44:50;;;;;;;4.05;2.08;;;;;;;14.63;49.13;95367.13;4930527;29;20024;-82
2023/09/10 02:47:15;;;;;;;3.70;1.80;;;;;;;14.63;49.89;95370.66;4928951;29;20035;-83
2023/09/10 02:49:41;;;;;;;4.70;2.33;;;;;;;14.61;49.68;95370.31;4928979;29;20082;-81
2023/09/10 02:52:06;;;;;;;4.47;2.13;;;;;;;14.60;49.87;95361.25;4931052;29;20490;-82
2023/09/10 02:54:34;;;;;;;5.32;2.50;;;;;;;14.60;49.55;95363.25;4928517;29;20030;-82
2023/09/10 02:56:59;;;;;;;5.72;2.42;;;;;;;14.63;49.30;95376.19;4929568;29;20036;-82
2023/09/10 02:59:25;;;;;;;4.85;2.30;;;;;;;14.53;49.67;95366.31;4928284;29;20032;-82
2023/09/10 03:01:52;;;;;;;4.45;2.38;;;;;;;14.51;49.68;95372.28;4913340;29;20058;-81
2023/09/10 03:04:17;;;;;;;3.47;2.28;;;;;;;14.56;49.57;95377.22;4928257;29;20550;-81
2023/09/10 03:06:44;;;;;;;5.28;2.80;;;;;;;14.50;49.75;95375.50;4912626;29;20107;-82
2023/09/10 03:09:10;;;;;;;4.53;2.30;;;;;;;14.48;49.90;95375.19;4928802;29;20384;-82
2023/09/10 03:11:37;;;;;;;9.18;2.90;;;;;;;14.46;49.87;95372.84;4929801;29;20032;-81
2023/09/10 03:14:03;;;;;;;5.78;2.78;;;;;;;14.43;50.09;95370.19;4929093;29;20040;-81
2023/09/10 03:16:29;;;;;;;4.15;2.20;;;;;;;14.39;50.13;95375.06;4928079;29;20055;-80
2023/09/10 03:18:54;;;;;;;4.30;2.80;;;;;;;14.37;50.43;95380.31;4928820;29;20023;-82
2023/09/10 03:21:21;;;;;;;5.45;2.50;;;;;;;14.40;50.54;95374.66;4927941;29;20047;-83
2023/09/10 03:23:46;;;;;;;4.97;2.08;;;;;;;14.32;50.66;95371.34;4912823;29;20483;-82
2023/09/10 03:26:12;;;;;;;4.55;2.42;;;;;;;14.39;50.52;95381.38;4929535;29;20034;-82
2023/09/10 03:28:37;;;;;;;6.28;2.55;;;;;;;14.31;50.63;95383.63;4912181;29;20340;-83
2023/09/10 03:31:03;;;;;;;4.80;2.58;;;;;;;14.27;50.71;95376.69;4929841;29;20425;-83
2023/09/10 03:33:28;;;;;;;4.82;2.63;;;;;;;14.28;50.97;95384.56;4911707;29;20051;-81
2023/09/10 03:35:54;;;;;;;6.07;2.88;;;;;;;14.29;51.05;95388.09;4928543;29;20534;-82
2023/09/10 03:38:19;;;;;;;5.70;3.00;;;;;;;14.24;51.13;95380.38;4927105;29;20023;-81
2023/09/10 03:40:45;;;;;;;6.45;3.05;;;;;;;14.26;51.23;95383.44;4928297;29;20032;-81
2023/09/10 03:43:10;;;;;;;7.10;2.60;;;;;;;14.28;51.32;95394.84;4927710;29;20030;-81
2023/09/10 03:45:35;;;;;;;5.13;2.67;;;;;;;14.22;51.26;95391.09;4912204;29;20051;-81
2023/09/10 03:48:01;;;;;;;5.15;2.47;;;;;;;14.20;51.27;95393.53;4912277;29;20337;-81
2023/09/10 03:50:26;;;;;;;6.30;2.50;;;;;;;14.28;51.17;95403.16;4928805;29;20119;-83
2023/09/10 03:52:52;;;;;;;11.32;3.55;;;;;;;14.21;51.38;95395.84;4928530;29;20028;-81
2023/09/10 03:55:17;;;;;;;5.30;3.25;;;;;;;14.17;51.11;95398.00;4928643;29;20059;-82
2023/09/10 03:57:43;;;;;;;8.27;2.78;;;;;;;14.14;51.00;95390.59;4929237;29;20051;-81
2023/09/10 04:00:09;;;;;;;6.15;2.75;;;;;;;14.09;51.34;95399.44;4929684;29;20019;-81
2023/09/10 04:02:34;;;;;;;4.13;2.60;;;;;;;14.08;51.33;95393.16;4912304;29;20531;-84
2023/09/10 04:05:01;;;;;;;4.30;2.47;;;;;;;14.07;51.34;95397.13;4914332;29;20023;-88
2023/09/10 04:07:26;;;;;;;5.78;2.75;;;;;;;14.00;51.40;95391.09;4930263;29;20031;-87
2023/09/10 04:09:51;;;;;;;7.85;2.42;;;;;;;13.99;51.14;95395.06;4914217;29;20035;-87
2023/09/10 04:12:17;;;;;;;8.50;2.60;;;;;;;13.91;50.97;95382.72;4912930;29;20054;-88
2023/09/10 04:14:42;;;;;;;9.32;2.67;;;;;;;13.96;51.09;95405.03;4931062;29;20043;-89
2023/09/10 04:17:08;;;;;;;8.32;3.00;;;;;;;13.92;51.50;95398.84;4928995;29;20106;-88
2023/09/10 04:19:33;;;;;;;4.55;2.75;;;;;;;13.99;51.76;95412.44;4913380;29;20035;-89
2023/09/10 04:21:58;;;;;;;5.00;2.45;;;;;;;13.96;51.51;95401.50;4913194;29;20036;-88
2023/09/10 04:24:24;;;;;;;5.85;2.88;;;;;;;14.00;51.68;95407.69;4913158;29;20031;-87
2023/09/10 04:26:49;;;;;;;7.90;2.80;;;;;;;14.00;51.97;95408.44;4913288;29;20490;-90
2023/09/10 04:29:15;;;;;;;5.00;2.50;;;;;;;14.05;51.51;95421.69;4928996;29;20030;-90
2023/09/10 04:31:41;;;;;;;3.83;2.40;;;;;;;13.99;51.35;95412.44;4913574;29;20420;-89
2023/09/10 04:34:06;;;;;;;6.93;2.72;;;;;;;14.03;51.45;95420.59;4897238;29;20396;-89
2023/09/10 04:36:31;;;;;;;6.95;2.80;;;;;;;14.01;51.67;95410.00;4932543;29;20097;-89
2023/09/10 04:38:57;;;;;;;5.25;2.70;;;;;;;14.09;51.79;95419.56;4947700;29;20482;-88
2023/09/10 04:41:22;;;;;;;10.32;2.80;;;;;;;14.04;51.69;95411.84;4947617;29;20529;-89
2023/09/10 04:43:48;;;;;;;5.60;2.60;;;;;;;14.03;51.61;95415.06;4948148;29;20038;-89
2023/09/10 04:46:13;;;;;;;4.95;2.65;;;;;;;14.08;51.79;95422.78;4931569;29;20133;-89
2023/09/10 04:48:38;;;;;;;8.15;2.90;;;;;;;14.11;51.71;95418.34;4916326;29;20020;-89
2023/09/10 04:51:04;;;;;;;4.10;2.65;;;;;;;14.09;51.65;95419.56;4948658;29;20074;-88
2023/09/10 04:53:30;;;;;;;6.70;2.83;;;;;;;14.10;51.49;95417.56;4932704;29;20516;-87
2023/09/10 04:55:55;;;;;;;7.85;2.85;;;;;;;14.09;51.66;95425.09;4947360;29;20038;-89
2023/09/10 04:58:21;;;;;;;8.38;4.22;;;;;;;14.08;51.33;95412.50;4916595;29;20023;-86
2023/09/10 05:00:48;;;;;;;8.45;2.85;;;;;;;14.16;51.40;95426.06;4948743;29;20027;-89
2023/09/10 05:03:14;;;;;;;5.50;2.70;;;;;;;14.21;51.29;95422.72;4931430;29;20043;-88
2023/09/10 05:05:39;;;;;;;6.93;3.20;;;;;;;14.23;51.16;95417.53;4931209;28;20034;-88
2023/09/10 05:08:05;;;;;;;5.97;2.78;;;;;;;14.22;51.32;95414.00;4931641;29;20097;-87
2023/09/10 05:10:30;;;;;;;6.85;3.10;;;;;;;14.31;51.31;95424.34;4949153;29;20042;-89
2023/09/10 05:12:55;;;;;;;8.80;3.20;;;;;;;14.33;51.05;95422.66;4948404;29;20106;-89
2023/09/10 05:15:22;;;;;;;9.20;3.20;;;;;;;14.41;50.86;95431.50;4948092;29;20474;-88
2023/09/10 05:17:47;;;;;;;6.57;3.25;;;;;;;14.37;50.92;95428.09;4947621;29;20050;-89
2023/09/10 05:20:13;;;;;;;6.30;2.90;;;;;;;14.49;50.34;95432.03;4947911;29;20027;-88
2023/09/10 05:22:38;;;;;;;6.13;3.20;;;;;;;14.54;50.30;95435.00;4947171;29;20506;-88
2023/09/10 05:25:04;;;;;;;5.80;2.90;;;;;;;14.58;49.98;95432.88;4931755;29;20058;-86
2023/09/10 05:27:30;;;;;;;7.40;3.10;;;;;;;14.57;50.08;95433.34;4948670;29;20059;-87
2023/09/10 05:29:55;;;;;;;7.55;2.70;;;;;;;14.65;49.89;95437.38;4947199;29;20026;-88
2023/09/10 05:32:20;;;;;;;7.18;2.70;;;;;;;14.69;49.54;95434.50;4932281;29;20035;-87
2023/09/10 05:34:46;;;;;;;4.55;2.65;;;;;;;14.81;49.09;95451.03;4946951;29;20114;-87
2023/09/10 05:37:11;;;;;;;5.80;3.00;;;;;;;14.80;48.76;95441.19;4948854;29;20151;-89
2023/09/10 05:39:37;;;;;;;7.85;2.90;;;;;;;14.91;47.90;95451.06;4947927;29;20403;-87
2023/09/10 05:42:03;;;;;;;5.97;2.50;;;;;;;14.95;47.71;95435.84;4948366;29;20037;-87
2023/09/10 05:44:28;;;;;;;4.20;2.00;;;;;;;15.06;47.34;95441.00;4947697;29;20031;-88
2023/09/10 05:46:53;;;;;;;4.50;2.20;;;;;;;15.11;46.93;95446.72;4948235;29;20090;-88
2023/09/10 05:49:19;;;;;;;3.97;2.15;;;;;;;15.19;46.66;95443.66;4915712;29;20119;-88
2023/09/10 05:51:44;;;;;;;6.97;2.50;;;;;;;15.20;46.52;95442.47;4946925;29;20397;-88
2023/09/10 05:54:09;;;;;;;4.18;2.40;;;;;;;15.26;46.76;95446.19;4948852;28;20506;-89
2023/09/10 05:56:35;;;;;;;6.38;2.65;;;;;;;15.26;46.48;95437.88;4951355;29;20023;-90
2023/09/10 05:59:01;;;;;;;5.95;2.75;;;;;;;15.29;46.51;95440.47;4936574;29;20034;-87
2023/09/10 06:01:26;;;;;;;4.78;2.20;;;;;;;15.36;46.61;95453.28;4934561;29;20023;-87
2023/09/10 06:03:52;;;;;;;9.55;3.00;;;;;;;15.39;46.37;95447.59;4934511;29;20034;-88
2023/09/10 06:06:17;;;;;;;5.18;2.40;;;;;;;15.49;46.35;95450.44;4950610;28;20050;-89
2023/09/10 06:08:43;;;;;;;5.05;2.53;;;;;;;15.54;46.38;95450.59;4933981;29;20085;-88
2023/09/10 06:11:08;;;;;;;6.57;2.85;;;;;;;15.59;46.36;95458.28;4951037;29;20070;-88
2023/09/10 06:13:33;;;;;;;5.82;2.75;;;;;;;15.60;46.24;95454.31;4951575;29;20066;-89
2023/09/10 06:15:59;;;;;;;6.25;3.03;;;;;;;15.69;46.37;95458.34;4934703;29;20097;-89
2023/09/10 06:18:25;;;;;;;7.55;2.45;;;;;;;15.79;46.23;95457.16;4933946;29;20126;-89
2023/09/10 06:20:50;;;;;;;4.75;2.30;;;;;;;15.84;46.18;95454.56;4950557;29;20170;-89
2023/09/10 06:23:15;;;;;;;4.50;2.30;;;;;;;15.85;46.24;95455.31;4950504;29;20148;-89
2023/09/10 06:25:41;;;;;;;4.45;2.53;;;;;;;15.94;46.23;95452.53;4951692;29;20038;-89
2023/09/10 06:28:06;;;;;;;4.22;2.63;;;;;;;16.07;46.15;95461.53;4950547;29;20063;-87
2023/09/10 06:30:32;;;;;;;7.38;2.65;;;;;;;16.16;45.86;95455.19;4933489;29;20114;-88
2023/09/10 06:32:57;;;;;;;4.47;2.83;;;;;;;16.27;45.66;95460.31;4950549;29;20107;-88
2023/09/10 06:35:26;;;;;;;5.05;2.70;;;;;;;16.30;45.94;95456.63;4933692;29;20431;-87
2023/09/10 06:37:51;;;;;;;5.22;2.85;;;;;;;16.37;45.49;95456.31;4934392;29;20126;-87
2023/09/10 06:40:17;;;;;;;4.47;2.72;;;;;;;16.38;45.52;95452.28;4949480;29;20074;-89
2023/09/10 06:42:43;;;;;;;5.45;2.90;;;;;;;16.47;45.46;95452.31;4949540;29;20086;-88
2023/09/10 06:45:09;;;;;;;6.90;3.13;;;;;;;16.59;45.11;95456.16;4949867;29;20027;-87
2023/09/10 06:47:34;;;;;;;6.53;2.83;;;;;;;16.67;45.27;95457.38;4917532;29;20038;-88
2023/09/10 06:49:59;;;;;;;6.00;3.10;;;;;;;16.77;44.98;95456.16;4950952;29;20080;-87
2023/09/10 06:52:25;;;;;;;4.95;2.70;;;;;;;16.86;44.70;95452.56;4954135;29;20023;-87
2023/09/10 06:54:50;;;;;;;6.80;2.75;;;;;;;16.97;44.45;95456.44;4968840;29;20019;-87
2023/09/10 06:57:16;;;;;;;3.83;2.67;;;;;;;17.06;44.67;95443.75;4942753;29;20026;-87
2023/09/10 06:59:41;;;;;;;9.07;3.00;;;;;;;17.21;43.96;95444.66;4934700;29;20034;-87
2023/09/10 07:02:06;;;;;;;4.82;2.50;;;;;;;17.29;43.90;95456.19;4949735;29;20586;-87
2023/09/10 07:04:32;;;;;;;4.18;2.53;;;;;;;17.41;43.43;95458.00;4949211;28;20534;-88
2023/09/10 07:06:58;;;;;;;4.50;2.55;;;;;;;17.51;42.90;95451.94;4949023;28;20027;-89
2023/09/10 07:09:23;;;;;;;5.40;2.38;;;;;;;17.61;42.89;95452.66;4949959;29;20054;-88
2023/09/10 07:11:50;;;;;;;5.03;2.65;;;;;;;17.76;42.57;95458.31;4933599;29;20035;-88
2023/09/10 07:14:15;;;;;;;7.13;3.13;;;;;;;17.82;42.11;95456.44;4933103;29;20038;-88
2023/09/10 07:16:41;;;;;;;4.43;3.20;;;;;;;17.97;41.45;95457.28;4949775;29;20034;-87
2023/09/10 07:19:06;;;;;;;6.88;3.22;;;;;;;18.06;41.45;95456.44;4932868;29;20023;-87
2023/09/10 07:21:32;;;;;;;4.75;2.88;;;;;;;18.21;40.75;95456.50;4933183;29;20027;-87
2023/09/10 07:23:58;;;;;;;5.40;2.60;;;;;;;18.27;39.63;95451.81;4932920;29;20031;-86
2023/09/10 07:26:23;;;;;;;5.50;2.40;;;;;;;18.41;39.59;95455.88;4949819;29;20032;-87
2023/09/10 07:28:48;;;;;;;5.57;2.60;;;;;;;18.47;40.02;95446.41;4949097;29;20027;-86
2023/09/10 07:31:14;;;;;;;5.78;3.22;;;;;;;18.62;39.38;95456.81;4932311;29;20261;-87
2023/09/10 07:33:39;;;;;;;5.20;2.50;;;;;;;18.70;39.71;95442.06;4933375;29;20334;-87
2023/09/10 07:36:05;;;;;;;10.15;2.80;;;;;;;18.81;39.29;95444.31;4948022;29;20525;-87
2023/09/10 07:38:31;;;;;;;3.60;2.28;;;;;;;18.96;38.50;95436.69;4950203;29;20038;-88
2023/09/10 07:40:56;;;;;;;4.13;2.55;;;;;;;19.10;38.16;95432.41;4932320;29;20034;-86
2023/09/10 07:43:23;;;;;;;4.38;2.30;;;;;;;19.22;37.96;95431.31;4948476;29;20034;-87
2023/09/10 07:45:48;;;;;;;8.18;2.60;;;;;;;19.36;38.35;95440.91;4949981;29;20027;-87
2023/09/10 07:48:15;;;;;;;4.50;2.58;;;;;;;19.48;38.49;95436.28;4934240;29;20497;-87
2023/09/10 07:50:40;;;;;;;4.63;2.78;;;;;;;19.61;37.87;95431.97;4949706;29;20043;-86
2023/09/10 07:53:05;;;;;;;3.58;2.38;;;;;;;19.75;37.67;95435.19;4932520;29;20031;-88
2023/09/10 07:55:34;;;;;;;5.38;2.30;;;;;;;19.92;37.38;95430.63;4949016;29;20027;-88
2023/09/10 07:57:59;;;;;;;5.03;2.22;;;;;;;20.09;37.16;95428.06;4932242;29;20454;-88
2023/09/10 08:00:25;;;;;;;6.38;2.40;;;;;;;20.26;36.60;95428.28;4949989;29;20023;-87
2023/09/10 08:02:50;;;;;;;7.00;2.30;;;;;;;20.48;36.10;95430.59;4949221;29;20039;-85
2023/09/10 08:05:16;;;;;;;3.30;2.08;;;;;;;20.63;35.04;95432.03;4916016;29;20059;-87
2023/09/10 08:07:41;;;;;;;3.58;2.40;;;;;;;20.80;34.65;95423.06;4932642;29;20484;-87
2023/09/10 08:10:07;;;;;;;4.60;2.42;;;;;;;20.98;34.62;95422.72;4948537;29;20042;-87
2023/09/10 08:12:33;;;;;;;5.72;2.47;;;;;;;21.18;34.78;95421.91;4948530;29;20448;-87
2023/09/10 08:14:58;;;;;;;5.03;2.28;;;;;;;21.43;34.11;95429.50;4947606;29;20035;-87
2023/09/10 08:17:24;;;;;;;5.78;2.35;;;;;;;21.66;33.74;95429.66;4931026;29;20078;-87
2023/09/10 08:19:49;;;;;;;3.75;2.05;;;;;;;21.88;33.58;95427.00;4931385;29;20038;-87
2023/09/10 08:22:15;;;;;;;3.75;2.38;;;;;;;22.13;33.29;95428.19;4948642;29;20185;-86
2023/09/10 08:24:41;;;;;;;3.65;1.85;;;;;;;22.32;32.61;95427.78;4916150;29;20072;-87
2023/09/10 08:27:12;;;;;;;9.35;2.40;;;;;;;22.55;32.27;95417.41;4946995;29;20118;-88
2023/09/10 08:29:38;;;;;;;4.88;2.35;;;;;;;22.82;31.82;95418.75;4949085;29;20035;-88
2023/09/10 08:32:04;;;;;;;4.57;2.20;;;;;;;23.09;31.35;95414.50;4947273;29;20410;-88
2023/09/10 08:34:29;;;;;;;5.15;2.40;;;;;;;23.35;31.18;95411.47;4931970;29;20155;-87
2023/09/10 08:36:55;;;;;;;5.53;2.70;;;;;;;23.55;30.67;95414.75;4947082;29;20051;-86
2023/09/10 08:39:21;;;;;;;6.43;3.00;;;;;;;23.79;30.81;95407.84;4947604;29;20024;-87
2023/09/10 08:42:06;;;;;;;4.72;3.05;;;;;;;24.07;30.78;95411.38;4931348;29;20233;-87
2023/09/10 08:44:32;;;;;;;6.35;3.08;;;;;;;24.38;30.33;95409.50;4930941;29;20035;-86
2023/09/10 08:47:00;;;;;;;7.80;3.13;;;;;;;24.68;29.89;95406.06;4931936;29;20050;-87
2023/09/10 08:49:27;;;;;;;5.43;2.95;;;;;;;25.05;28.95;95406.34;4946809;29;20087;-87
2023/09/10 08:51:52;;;;;;;3.72;2.60;;;;;;;25.32;28.86;95415.13;4931756;29;20462;-87
2023/09/10 08:54:19;;;;;;;5.40;2.67;;;;;;;25.62;28.01;95410.25;4947179;29;20020;-87
2023/09/10 08:56:45;;;;;;;5.13;2.75;;;;;;;25.86;28.03;95409.56;4948620;29;20051;-86
2023/09/10 08:59:12;;;;;;;4.78;3.15;;;;;;;26.07;28.12;95404.19;4947548;29;20074;-87
2023/09/10 09:01:38;;;;;;;4.85;2.97;;;;;;;26.34;27.83;95410.06;4930613;29;20054;-86
2023/09/10 09:04:04;;;;;;;7.60;3.30;;;;;;;26.69;27.71;95406.31;4947357;29;20110;-86
2023/09/10 09:06:33;;;;;;;5.47;2.90;;;;;;;27.03;27.10;95419.97;4930410;29;20565;-86
2023/09/10 09:09:05;;;;;;;3.97;3.00;;;;;;;27.33;27.16;95414.91;4915288;29;20113;-86
2023/09/10 09:11:35;;;;;;;5.57;2.77;;;;;;;27.57;26.55;95404.75;4946544;29;20050;-86
2023/09/10 09:14:01;;;;;;;5.45;2.63;;;;;;;27.85;26.12;95407.13;4930889;29;20665;-86
2023/09/10 09:16:26;;;;;;;4.88;2.78;;;;;;;28.12;25.60;95402.28;4931147;29;20050;-86
2023/09/10 09:18:52;;;;;;;6.22;2.88;;;;;;;28.35;25.34;95413.94;4946658;29;20414;-86
2023/09/10 09:21:21;;;;;;;6.32;2.90;;;;;;;28.63;25.10;95404.91;4946790;29;20027;-85
2023/09/10 09:23:59;;;;;;;4.15;3.08;;;;;;;28.84;25.56;95412.13;4946193;29;20082;-85
2023/09/10 09:26:28;;;;;;;5.95;3.53;;;;;;;29.12;24.54;95405.09;4930661;29;20035;-86
2023/09/10 09:28:56;;;;;;;6.55;3.38;;;;;;;29.39;24.81;95407.84;4932809;29;20035;-86
2023/09/10 09:31:22;;;;;;;4.10;2.90;;;;;;;29.65;23.71;95399.25;4934251;29;20054;-85
2023/09/10 09:33:47;;;;;;;7.70;3.45;;;;;;;29.89;23.70;95393.22;4918134;29;20126;-85
2023/09/10 09:36:13;;;;;;;8.57;4.20;;;;;;;30.18;23.55;95393.25;4946485;29;20058;-85
2023/09/10 09:38:46;;;;;;;3.50;2.58;;;;;;;30.38;22.90;95388.81;4932695;29;20036;-86
2023/09/10 09:41:14;;;;;;;3.80;2.50;;;;;;;30.53;22.58;95388.16;4931409;29;20032;-85
2023/09/10 09:43:39;;;;;;;4.63;2.80;;;;;;;30.76;22.09;95391.88;4931199;29;20523;-85
2023/09/10 09:46:04;;;;;;;3.88;2.75;;;;;;;30.92;22.59;95390.63;4947773;29;20027;-87
2023/09/10 09:48:30;;;;;;;4.82;3.28;;;;;;;31.16;22.14;95391.44;4930468;29;20024;-85
2023/09/10 09:50:59;;;;;;;4.85;2.78;;;;;;;31.38;21.39;95390.00;4938500;29;20031;-87
2023/09/10 09:53:26;;;;;;;6.82;3.00;;;;;;;31.42;21.57;95379.00;4915572;29;20087;-86
2023/09/10 09:56:00;;;;;;;4.75;3.10;;;;;;;31.54;21.04;95374.47;4947099;29;20035;-86
2023/09/10 09:58:25;;;;;;;4.88;2.90;;;;;;;31.82;20.71;95376.41;4930086;29;20073;-86
2023/09/10 10:00:51;;;;;;;5.50;2.78;;;;;;;32.05;20.79;95379.22;4930744;29;20047;-86
2023/09/10 10:03:20;;;;;;;5.07;3.03;;;;;;;32.35;21.04;95364.25;4946206;29;20031;-86
2023/09/10 10:05:53;;;;;;;5.80;3.00;;;;;;;32.53;20.32;95370.06;4915008;29;20130;-86
2023/09/10 10:08:19;;;;;;;6.15;3.08;;;;;;;32.65;20.45;95368.31;4931449;29;20509;-86
2023/09/10 10:10:48;;;;;;;5.80;3.00;;;;;;;32.76;19.81;95360.09;4929991;29;20130;-85
2023/09/10 10:13:19;;;;;;;4.40;2.80;;;;;;;33.03;19.96;95363.25;4930091;29;20038;-85
2023/09/10 10:15:47;;;;;;;4.60;2.80;;;;;;;33.22;19.17;95364.84;4929587;29;20141;-85
2023/09/10 10:18:14;;;;;;;9.07;3.00;;;;;;;33.02;19.11;95346.72;4930330;29;20502;-86
2023/09/10 10:20:40;;;;;;;3.58;2.78;;;;;;;33.10;18.82;95358.84;4929566;29;20506;-86
2023/09/10 10:23:06;;;;;;;4.25;2.92;;;;;;;33.76;19.08;95353.81;4930175;29;20207;-86
2023/09/10 10:25:35;;;;;;;7.78;3.53;;;;;;;34.28;18.29;95348.97;4945682;29;20491;-86
2023/09/10 10:28:01;;;;;;;4.15;2.47;;;;;;;34.83;17.99;95350.66;4945575;29;20035;-86
2023/09/10 10:30:27;;;;;;;5.47;2.70;;;;;;;35.31;17.58;95352.31;4929613;29;20131;-85
2023/09/10 10:32:53;;;;;;;7.63;3.78;;;;;;;36.09;16.87;95344.84;4945433;29;20491;-86
2023/09/10 10:35:19;;;;;;;3.50;2.80;;;;;;;36.81;16.01;95350.91;4932310;29;20046;-86
2023/09/10 10:37:58;;;;;;;4.68;2.65;;;;;;;37.17;15.09;95352.84;4932370;29;20514;-86
2023/09/10 10:40:38;;;;;;;6.38;3.35;;;;;;;37.94;15.11;95346.09;4932360;29;20027;-86
2023/09/10 10:43:10;;;;;;;4.88;2.75;;;;;;;38.70;14.48;95337.59;4932654;29;20454;-86
2023/09/10 10:45:36;;;;;;;5.50;2.65;;;;;;;39.22;13.75;95322.31;4948009;29;20035;-85
2023/09/10 10:48:13;;;;;;;4.18;2.72;;;;;;;39.46;13.59;95338.25;4948807;29;20416;-83
2023/09/10 10:50:39;;;;;;;5.78;2.55;;;;;;;39.95;13.42;95338.38;4947984;29;20028;-85
2023/09/10 10:53:12;;;;;;;5.75;2.55;;;;;;;40.28;13.04;95337.50;4932794;29;20106;-85
2023/09/10 10:55:38;;;;;;;3.95;2.20;;;;;;;40.64;12.80;95335.28;4948344;29;20027;-84
2023/09/10 10:58:03;;;;;;;10.45;2.83;;;;;;;40.91;12.42;95326.03;4932788;29;20098;-85
2023/09/10 11:00:29;;;;;;;5.13;2.50;;;;;;;41.26;12.46;95329.50;4948459;29;20027;-85
2023/09/10 11:03:13;;;;;;;5.68;2.50;;;;;;;41.49;12.08;95325.00;4948173;29;20055;-85
2023/09/10 11:05:50;;;;;;;4.05;2.15;;;;;;;41.79;12.02;95320.13;4948212;29;20110;-85
2023/09/10 11:08:26;;;;;;;3.67;2.47;;;;;;;42.34;11.44;95320.91;4948790;28;20035;-85
2023/09/10 11:10:51;;;;;;;3.75;2.70;;;;;;;42.68;11.42;95318.28;4949204;29;20070;-86
2023/09/10 11:13:17;;;;;;;4.85;2.17;;;;;;;42.57;11.53;95316.25;4949176;29;20027;-85
2023/09/10 11:16:15;;;;;;;3.63;2.05;;;;;;;42.50;11.39;95308.66;4931500;29;20106;-84
2023/09/10 11:18:44;;;;;;;3.97;2.35;;;;;;;42.38;11.22;95308.78;4892494;29;20058;-85
2023/09/10 11:21:14;;;;;;;4.22;2.40;;;;;;;42.38;11.42;95306.66;4892685;29;20052;-85
2023/09/10 11:24:06;;;;;;;3.90;2.70;;;;;;;41.36;12.17;95309.91;4908662;29;20555;-84
2023/09/10 11:26:31;;;;;;;3.38;2.75;;;;;;;40.20;13.12;95293.81;4900936;29;20044;-85
2023/09/10 11:28:59;;;;;;;5.57;2.78;;;;;;;39.28;13.74;95297.56;4892127;29;20119;-84
2023/09/10 11:31:33;;;;;;;5.57;2.90;;;;;;;38.64;14.25;95286.25;4894788;29;20127;-85